Hlavní strana
METAR-TAF:

METAR-TAF

Letiště :

Mitiga International Airport

Tripolis, Libye

zeměpisná šířka: 32-54N, zeměpisná délka: 13-17E, výška: 11 m

METAR: chybějící

Čas: 05:22 (03:22 UTC)

Předpověď počasí

Zpráva byla vytvořena před 22 hodinami a 22 minutami, v 05:00 UTC
Předpověď platná od 03 v 06 UTC do 04 v 06 UTC
Západní vítr 12 kt
Viditelnost: 8000 m
Polojasno ve výšce 7000 ft
Změna
od 03 v 13 UTC do 03 v 15 UTC
Severní vítr 15 kt
Pravděpodobnost 30% :
Dočasný
od 03 v 15 UTC do 03 v 24 UTC
Viditelnost: 6000 m
Oblačno až skoro zataženo ve výšce 2500 ft
Oblačno až skoro zataženo ve výšce 7000 ft
déšť

TAF: HLLM 030500Z 0306/0406 27012KT 8000 SCT 025 SCT070 BECMG 0313/0315 36015KT PROB30 TEMPO 0315/0324 6000 RA BKN025 BKN070

Stav a předpovědi počasí z více než 4 000 letišť (zprávy METAR a TAF).

Červené a žluté tečky na mapě představují dostupné meteorologické stanice.

Když kurzor umístíte na tečku, zobrazí se název stanice.

Pak kliknutím zobrazíte stav a předpověď počasí.

Chcete-li změnit mapu, kliknutím na zelené tlačítko se znaménkem +mapu přiblížíte, kliknutím na zelené tlačítko se znaménkem – mapu oddálíte a kliknutím na zelené šipky přejdete na sousední mapy.


METAR-TAF: